createdAt,value
2023-02-06T00:00:55.738Z,4.70
2023-02-06T00:03:22.508Z,4.65
2023-02-06T00:05:56.552Z,6.45
2023-02-06T00:08:24.878Z,4.57
2023-02-06T00:10:51.660Z,4.65
2023-02-06T00:13:18.282Z,5.00
2023-02-06T00:15:45.056Z,4.50
2023-02-06T00:18:11.940Z,5.03
2023-02-06T00:20:41.941Z,4.63
2023-02-06T00:23:08.680Z,4.07
2023-02-06T00:25:37.117Z,4.90
2023-02-06T00:28:04.251Z,5.43
2023-02-06T00:30:30.970Z,4.32
2023-02-06T00:32:57.691Z,5.32
2023-02-06T00:35:24.447Z,4.63
2023-02-06T00:37:51.245Z,4.47
2023-02-06T00:40:18.952Z,5.95
2023-02-06T00:42:47.026Z,4.72
2023-02-06T00:45:14.059Z,6.50
2023-02-06T00:47:40.712Z,4.75
2023-02-06T00:50:07.889Z,5.00
2023-02-06T00:52:34.543Z,5.57
2023-02-06T00:55:01.230Z,5.38
2023-02-06T00:57:27.898Z,5.20
2023-02-06T01:00:06.487Z,5.55
2023-02-06T01:02:33.228Z,5.63
2023-02-06T01:04:59.937Z,4.68
2023-02-06T01:07:26.784Z,4.75
2023-02-06T01:09:53.431Z,4.40
2023-02-06T01:12:20.913Z,6.30
2023-02-06T01:14:47.687Z,6.00
2023-02-06T01:17:15.822Z,5.20
2023-02-06T01:19:42.468Z,4.80
2023-02-06T01:22:09.121Z,6.38
2023-02-06T01:24:36.589Z,5.20
2023-02-06T01:27:03.425Z,5.65
2023-02-06T01:29:30.110Z,6.50
2023-02-06T01:31:56.751Z,4.40
2023-02-06T01:34:24.848Z,4.70
2023-02-06T01:36:51.574Z,4.93
2023-02-06T01:39:28.074Z,5.22
2023-02-06T01:41:54.861Z,5.20
2023-02-06T01:44:23.347Z,5.25
2023-02-06T01:46:51.540Z,5.50
2023-02-06T01:49:21.630Z,5.15
2023-02-06T01:51:51.481Z,6.07
2023-02-06T01:54:18.433Z,5.40
2023-02-06T01:56:54.323Z,5.22
2023-02-06T01:59:21.835Z,6.38
2023-02-06T02:01:48.707Z,5.68
2023-02-06T02:04:19.027Z,5.57
2023-02-06T02:06:52.690Z,6.10
2023-02-06T02:09:20.344Z,5.60
2023-02-06T02:11:47.004Z,8.00
2023-02-06T02:14:15.636Z,6.82
2023-02-06T02:16:52.400Z,7.70
2023-02-06T02:20:03.108Z,5.85
2023-02-06T02:22:44.183Z,7.95
2023-02-06T02:25:32.061Z,8.70
2023-02-06T02:28:22.299Z,7.55
2023-02-06T02:31:20.518Z,5.78
2023-02-06T02:34:20.708Z,7.90
2023-02-06T02:36:52.396Z,6.75
2023-02-06T02:39:27.283Z,6.32
2023-02-06T02:41:59.855Z,7.20
2023-02-06T02:44:34.019Z,7.32
2023-02-06T02:47:03.800Z,7.15
2023-02-06T02:49:35.342Z,6.05
2023-02-06T02:52:04.348Z,7.45
2023-02-06T02:54:31.094Z,5.88
2023-02-06T02:57:02.668Z,7.85
2023-02-06T02:59:35.748Z,7.32
2023-02-06T03:02:06.055Z,7.15
2023-02-06T03:04:39.717Z,6.80
2023-02-06T03:07:15.703Z,6.57
2023-02-06T03:09:52.536Z,5.68
2023-02-06T03:12:24.218Z,5.80
2023-02-06T03:14:55.604Z,8.40
2023-02-06T03:17:31.647Z,6.00
2023-02-06T03:20:05.026Z,6.63
2023-02-06T03:22:35.710Z,7.22
2023-02-06T03:25:04.418Z,5.93
2023-02-06T03:27:32.586Z,8.20
2023-02-06T03:30:03.260Z,8.85
2023-02-06T03:32:32.808Z,8.07
2023-02-06T03:37:34.694Z,9.38
2023-02-06T03:40:05.900Z,6.95
2023-02-06T03:42:36.311Z,7.78
2023-02-06T03:45:06.698Z,6.50
2023-02-06T03:47:35.537Z,6.07
2023-02-06T03:50:02.349Z,7.68
2023-02-06T03:52:35.791Z,7.70
2023-02-06T03:55:16.609Z,8.40
2023-02-06T03:57:46.506Z,7.15
2023-02-06T04:00:14.437Z,9.05
2023-02-06T04:02:42.313Z,6.28
2023-02-06T04:05:09.229Z,7.03
2023-02-06T04:07:36.129Z,8.25
2023-02-06T04:10:04.804Z,5.75
2023-02-06T04:12:35.486Z,7.78
2023-02-06T04:15:02.144Z,8.52
2023-02-06T04:17:46.273Z,5.90
2023-02-06T04:20:15.611Z,6.43
2023-02-06T04:22:42.334Z,6.47
2023-02-06T04:25:10.453Z,7.18
2023-02-06T04:27:37.995Z,7.30
2023-02-06T04:30:11.706Z,6.80
2023-02-06T04:32:38.436Z,7.15
2023-02-06T04:35:05.774Z,7.00
2023-02-06T04:37:32.480Z,8.15
2023-02-06T04:39:59.191Z,7.15
2023-02-06T04:42:27.410Z,6.95
2023-02-06T04:44:54.127Z,9.20
2023-02-06T04:47:20.780Z,6.53
2023-02-06T04:49:47.484Z,13.73
2023-02-06T04:52:14.109Z,5.97
2023-02-06T04:54:40.767Z,7.57
2023-02-06T04:57:07.422Z,6.85
2023-02-06T04:59:35.452Z,7.82
2023-02-06T05:02:02.106Z,12.82
2023-02-06T05:04:28.718Z,7.40
2023-02-06T05:06:55.344Z,8.50
2023-02-06T05:09:22.036Z,8.20
2023-02-06T05:11:48.675Z,9.90
2023-02-06T05:14:15.272Z,9.07
2023-02-06T05:16:43.296Z,7.57
2023-02-06T05:19:10.030Z,8.25
2023-02-06T05:21:36.620Z,9.70
2023-02-06T05:24:03.578Z,9.10
2023-02-06T05:26:30.208Z,16.70
2023-02-06T05:28:56.888Z,7.95
2023-02-06T05:31:26.684Z,10.48
2023-02-06T05:33:54.958Z,10.48
2023-02-06T05:36:22.838Z,10.02
2023-02-06T05:38:50.375Z,7.10
2023-02-06T05:41:17.321Z,7.75
2023-02-06T05:43:44.263Z,8.25
2023-02-06T05:46:11.035Z,8.40
2023-02-06T05:48:37.770Z,10.95
2023-02-06T05:51:06.118Z,8.55
2023-02-06T05:53:32.840Z,9.48
2023-02-06T05:55:59.516Z,9.80
2023-02-06T05:58:26.226Z,10.05
2023-02-06T06:00:52.927Z,11.18
2023-02-06T06:03:19.593Z,13.48
2023-02-06T06:05:46.278Z,7.85
2023-02-06T06:08:14.375Z,12.45
2023-02-06T06:10:41.010Z,9.05
2023-02-06T06:13:07.726Z,11.35
2023-02-06T06:15:34.797Z,10.43
2023-02-06T06:18:01.629Z,8.18
2023-02-06T06:20:28.296Z,7.60
2023-02-06T06:22:54.975Z,9.35
2023-02-06T06:25:23.045Z,11.55
2023-02-06T06:27:49.705Z,10.52
2023-02-06T06:30:16.830Z,14.63
2023-02-06T06:32:43.520Z,10.73
2023-02-06T06:35:10.138Z,9.30
2023-02-06T06:37:36.989Z,12.77
2023-02-06T06:40:04.152Z,10.30
2023-02-06T06:42:32.209Z,14.20
2023-02-06T06:44:58.912Z,20.52
2023-02-06T06:47:25.623Z,15.93
2023-02-06T06:49:52.274Z,13.40
2023-02-06T06:52:25.069Z,11.60
2023-02-06T06:54:52.765Z,11.95
2023-02-06T06:57:19.995Z,13.45
2023-02-06T06:59:48.281Z,14.95
2023-02-06T07:02:15.295Z,12.57
2023-02-06T07:04:42.225Z,13.80
2023-02-06T07:07:09.296Z,13.57
2023-02-06T07:09:36.001Z,14.45
2023-02-06T07:12:03.058Z,11.13
2023-02-06T07:14:29.740Z,14.05
2023-02-06T07:16:57.819Z,17.95
2023-02-06T07:19:24.599Z,12.45
2023-02-06T07:21:51.345Z,12.13
2023-02-06T07:24:18.259Z,10.15
2023-02-06T07:26:48.015Z,15.10
2023-02-06T07:29:14.774Z,17.15
2023-02-06T07:31:41.563Z,12.25
2023-02-06T07:34:10.068Z,16.60
2023-02-06T07:36:36.788Z,10.27
2023-02-06T07:39:04.130Z,10.70
2023-02-06T07:41:30.979Z,14.90
2023-02-06T07:43:57.716Z,13.30
2023-02-06T07:46:24.575Z,9.63
2023-02-06T07:48:51.497Z,12.52
2023-02-06T07:51:19.675Z,11.30
2023-02-06T07:53:46.351Z,10.00
2023-02-06T07:56:15.235Z,14.68
2023-02-06T07:58:42.557Z,15.60
2023-02-06T08:01:10.155Z,11.18
2023-02-06T08:03:37.379Z,12.75
2023-02-06T08:06:24.560Z,11.05
2023-02-06T08:08:51.877Z,12.55
2023-02-06T08:11:21.097Z,12.65
2023-02-06T08:13:48.395Z,14.00
2023-02-06T08:16:17.181Z,16.48
2023-02-06T08:18:43.937Z,12.23
2023-02-06T08:21:12.424Z,20.58
2023-02-06T08:23:53.346Z,19.33
2023-02-06T08:26:20.041Z,19.27
2023-02-06T08:28:48.831Z,11.90
2023-02-06T08:31:17.758Z,11.93
2023-02-06T08:33:45.028Z,15.00
2023-02-06T08:36:13.085Z,13.80
2023-02-06T08:38:41.344Z,11.20
2023-02-06T08:41:18.274Z,10.98
2023-02-06T08:43:45.583Z,11.52
2023-02-06T08:46:12.434Z,11.65
2023-02-06T08:48:39.133Z,12.40
2023-02-06T08:51:07.730Z,8.45
2023-02-06T08:53:34.755Z,8.85
2023-02-06T08:56:05.607Z,10.23
2023-02-06T08:58:32.838Z,8.90
2023-02-06T09:01:05.232Z,12.80
2023-02-06T09:03:31.871Z,7.80
2023-02-06T09:06:09.575Z,9.30
2023-02-06T09:08:37.654Z,9.70
2023-02-06T09:11:09.940Z,7.80
2023-02-06T09:13:36.786Z,8.38
2023-02-06T09:16:04.008Z,7.65
2023-02-06T09:18:30.668Z,7.93
2023-02-06T09:21:09.175Z,7.10
2023-02-06T09:23:35.837Z,6.75
2023-02-06T09:26:02.525Z,8.30
2023-02-06T09:28:30.885Z,8.48
2023-02-06T09:30:57.566Z,8.93
2023-02-06T09:33:24.437Z,7.85
2023-02-06T09:36:12.156Z,9.57
2023-02-06T09:38:42.411Z,7.97
2023-02-06T09:41:15.349Z,9.95
2023-02-06T09:43:49.916Z,10.93
2023-02-06T09:46:19.579Z,8.20
2023-02-06T09:51:25.899Z,10.70
2023-02-06T09:54:01.323Z,7.82
2023-02-06T09:56:36.387Z,8.77
2023-02-06T09:59:13.166Z,7.50
2023-02-06T10:02:00.782Z,8.15
2023-02-06T10:04:42.737Z,10.20
2023-02-06T10:07:22.246Z,8.68
2023-02-06T10:09:54.149Z,10.82
2023-02-06T10:12:26.773Z,9.93
2023-02-06T10:15:00.749Z,8.68
2023-02-06T10:17:39.957Z,9.60
2023-02-06T10:20:13.178Z,6.88
2023-02-06T10:22:45.386Z,7.93
2023-02-06T10:25:20.058Z,8.02
2023-02-06T10:27:52.696Z,8.48
2023-02-06T10:30:34.236Z,9.32
2023-02-06T10:33:14.381Z,8.57
2023-02-06T10:35:56.434Z,9.10
2023-02-06T10:38:46.782Z,10.95
2023-02-06T10:41:27.074Z,11.63
2023-02-06T10:44:04.160Z,10.63
2023-02-06T10:46:44.659Z,10.77
2023-02-06T10:49:19.081Z,12.95
2023-02-06T10:51:48.593Z,12.25
2023-02-06T10:54:19.058Z,13.13
2023-02-06T10:56:47.665Z,12.70
2023-02-06T10:59:21.969Z,14.57
2023-02-06T11:01:55.725Z,10.82
2023-02-06T11:04:29.459Z,11.30
2023-02-06T11:07:00.915Z,10.90
2023-02-06T11:09:27.975Z,9.98
2023-02-06T11:11:57.164Z,10.90
2023-02-06T11:14:27.699Z,10.23
2023-02-06T11:16:59.455Z,13.50
2023-02-06T11:19:28.754Z,13.68
2023-02-06T11:22:07.375Z,10.18
2023-02-06T11:24:35.178Z,13.02
2023-02-06T11:27:11.442Z,10.65
2023-02-06T11:29:45.239Z,15.43
2023-02-06T11:32:35.091Z,10.40
2023-02-06T11:35:06.140Z,12.55
2023-02-06T11:37:35.764Z,10.70
2023-02-06T11:42:52.003Z,10.55
2023-02-06T11:45:25.216Z,9.90
2023-02-06T11:47:53.690Z,10.30
2023-02-06T11:50:25.109Z,10.80
2023-02-06T11:52:59.248Z,14.93
2023-02-06T11:55:28.457Z,15.30
2023-02-06T11:58:04.362Z,11.77
2023-02-06T12:00:31.184Z,11.52
2023-02-06T12:02:59.351Z,11.70
2023-02-06T12:05:29.070Z,19.80
2023-02-06T12:10:26.048Z,10.88
2023-02-06T12:12:57.850Z,11.45
2023-02-06T12:15:45.611Z,8.88
2023-02-06T12:18:18.619Z,11.63
2023-02-06T12:20:50.047Z,9.77
2023-02-06T12:23:22.188Z,10.13
2023-02-06T12:25:52.875Z,12.93
2023-02-06T12:28:25.037Z,10.43
2023-02-06T12:30:55.366Z,12.90
2023-02-06T12:33:28.103Z,11.20
2023-02-06T12:36:00.252Z,10.07
2023-02-06T12:38:39.570Z,9.68
2023-02-06T12:41:20.104Z,10.38
2023-02-06T12:43:53.631Z,9.82
2023-02-06T12:46:27.946Z,9.60
2023-02-06T12:49:07.842Z,9.77
2023-02-06T12:51:40.440Z,11.07
2023-02-06T12:54:15.746Z,11.98
2023-02-06T12:56:47.459Z,10.43
2023-02-06T12:59:55.573Z,11.35
2023-02-06T13:02:41.816Z,11.13
2023-02-06T13:05:20.296Z,9.40
2023-02-06T13:07:50.039Z,12.77
2023-02-06T13:10:20.267Z,11.00
2023-02-06T13:12:53.683Z,10.23
2023-02-06T13:15:22.649Z,10.38
2023-02-06T13:17:49.351Z,12.13
2023-02-06T13:20:20.074Z,12.32
2023-02-06T13:22:48.906Z,9.90
2023-02-06T13:25:52.180Z,15.10
2023-02-06T13:28:42.712Z,11.25
2023-02-06T13:31:26.179Z,10.15
2023-02-06T13:33:58.074Z,10.55
2023-02-06T13:36:42.005Z,10.05
2023-02-06T13:39:23.637Z,11.47
2023-02-06T13:41:51.161Z,10.75
2023-02-06T13:44:25.642Z,10.25
2023-02-06T13:47:26.825Z,12.27
2023-02-06T13:50:24.129Z,11.75
2023-02-06T13:53:05.497Z,12.05
2023-02-06T13:55:44.454Z,9.85
2023-02-06T13:58:28.511Z,11.93
2023-02-06T14:00:57.058Z,13.57
2023-02-06T14:03:29.203Z,9.90
2023-02-06T14:06:07.326Z,12.38
2023-02-06T14:08:46.749Z,12.13
2023-02-06T14:11:29.977Z,9.85
2023-02-06T14:14:27.096Z,13.07
2023-02-06T14:17:03.405Z,11.43
2023-02-06T14:19:38.765Z,10.25
2023-02-06T14:22:18.496Z,10.73
2023-02-06T14:27:37.338Z,11.15
2023-02-06T14:30:16.353Z,12.00
2023-02-06T14:32:50.207Z,10.30
2023-02-06T14:35:31.523Z,10.23
2023-02-06T14:38:21.342Z,8.88
2023-02-06T14:40:53.358Z,11.10
2023-02-06T14:43:24.533Z,9.60
2023-02-06T14:46:06.468Z,11.35
2023-02-06T14:48:39.977Z,9.80
2023-02-06T14:51:09.052Z,9.80
2023-02-06T14:53:37.365Z,10.20
2023-02-06T14:56:16.312Z,9.18
2023-02-06T14:58:44.176Z,8.95
2023-02-06T15:01:19.678Z,8.45
2023-02-06T15:03:48.060Z,9.77
2023-02-06T15:06:25.808Z,8.85
2023-02-06T15:08:52.487Z,9.65
2023-02-06T15:11:23.354Z,9.82
2023-02-06T15:13:51.911Z,9.85
2023-02-06T15:16:18.662Z,11.02
2023-02-06T15:18:45.401Z,9.30
2023-02-06T15:21:14.904Z,9.60
2023-02-06T15:23:58.139Z,11.43
2023-02-06T15:26:34.926Z,10.82
2023-02-06T15:29:05.085Z,11.65
2023-02-06T15:31:32.168Z,10.43
2023-02-06T15:34:00.671Z,12.63
2023-02-06T15:36:31.374Z,10.05
2023-02-06T15:38:58.647Z,9.00
2023-02-06T15:41:35.241Z,9.32
2023-02-06T15:44:06.732Z,10.07
2023-02-06T15:46:33.854Z,10.80
2023-02-06T15:49:00.537Z,11.05
2023-02-06T15:51:29.411Z,10.45
2023-02-06T15:54:07.978Z,10.83
2023-02-06T15:56:39.954Z,8.70
2023-02-06T15:59:16.255Z,9.25
2023-02-06T16:01:43.635Z,10.23
2023-02-06T16:04:16.780Z,10.85
2023-02-06T16:06:43.674Z,11.80
2023-02-06T16:09:21.323Z,13.82
2023-02-06T16:11:52.338Z,12.52
2023-02-06T16:14:23.273Z,10.98
2023-02-06T16:16:58.114Z,9.95
2023-02-06T16:19:38.027Z,10.95
2023-02-06T16:22:05.903Z,14.98
2023-02-06T16:24:32.561Z,11.10
2023-02-06T16:27:15.267Z,9.98
2023-02-06T16:29:47.294Z,9.73
2023-02-06T16:32:17.352Z,9.43
2023-02-06T16:34:45.334Z,8.93
2023-02-06T16:37:14.015Z,10.23
2023-02-06T16:39:41.677Z,13.52
2023-02-06T16:42:13.122Z,8.95
2023-02-06T16:44:45.419Z,9.65
2023-02-06T16:47:17.289Z,9.55
2023-02-06T16:49:44.975Z,10.68
2023-02-06T16:52:18.119Z,9.35
2023-02-06T16:54:45.540Z,13.63
2023-02-06T16:57:20.413Z,10.77
2023-02-06T16:59:47.133Z,11.88
2023-02-06T17:02:14.226Z,9.75
2023-02-06T17:04:41.385Z,11.40
2023-02-06T17:07:13.743Z,9.85
2023-02-06T17:09:41.501Z,11.75
2023-02-06T17:12:13.784Z,11.90
2023-02-06T17:14:40.747Z,10.15
2023-02-06T17:17:09.003Z,12.50
2023-02-06T17:19:35.683Z,10.63
2023-02-06T17:22:02.304Z,11.85
2023-02-06T17:24:28.955Z,11.23
2023-02-06T17:26:55.623Z,11.65
2023-02-06T17:29:23.605Z,10.82
2023-02-06T17:31:50.258Z,12.88
2023-02-06T17:34:16.914Z,15.93
2023-02-06T17:36:43.581Z,12.15
2023-02-06T17:39:11.992Z,14.82
2023-02-06T17:41:38.654Z,11.98
2023-02-06T17:44:05.453Z,10.73
2023-02-06T17:46:33.584Z,11.75
2023-02-06T17:49:00.226Z,11.45
2023-02-06T17:51:26.829Z,14.05
2023-02-06T17:53:53.526Z,16.20
2023-02-06T17:56:20.367Z,15.38
2023-02-06T17:58:47.089Z,13.70
2023-02-06T18:01:15.415Z,13.15
2023-02-06T18:03:44.585Z,13.23
2023-02-06T18:06:12.292Z,13.65
2023-02-06T18:08:40.276Z,13.00
2023-02-06T18:11:08.729Z,12.32
2023-02-06T18:13:35.364Z,12.00
2023-02-06T18:16:02.043Z,12.68
2023-02-06T18:18:28.806Z,14.18
2023-02-06T18:20:56.897Z,13.32
2023-02-06T18:23:23.642Z,17.88
2023-02-06T18:25:50.308Z,12.73
2023-02-06T18:28:17.243Z,17.17
2023-02-06T18:30:44.532Z,15.70
2023-02-06T18:33:11.822Z,14.55
2023-02-06T18:35:39.381Z,14.38
2023-02-06T18:38:07.519Z,13.32
2023-02-06T18:40:34.251Z,17.27
2023-02-06T18:43:01.029Z,16.55
2023-02-06T18:45:27.824Z,14.45
2023-02-06T18:47:54.470Z,15.60
2023-02-06T18:50:23.974Z,17.80
2023-02-06T18:52:50.673Z,18.35
2023-02-06T18:55:19.112Z,17.48
2023-02-06T18:57:45.867Z,19.10
2023-02-06T19:00:14.802Z,18.98
2023-02-06T19:02:41.841Z,17.00
2023-02-06T19:05:08.924Z,17.00
2023-02-06T19:07:35.681Z,18.60
2023-02-06T19:10:05.291Z,19.35
2023-02-06T19:14:59.912Z,19.25
2023-02-06T19:17:27.970Z,19.48
2023-02-06T19:19:54.827Z,18.55
2023-02-06T19:22:21.837Z,17.70
2023-02-06T19:24:48.748Z,18.48
2023-02-06T19:27:15.363Z,19.08
2023-02-06T19:29:43.560Z,17.80
2023-02-06T19:32:10.358Z,18.48
2023-02-06T19:34:39.052Z,19.15
2023-02-06T19:37:07.811Z,21.10
2023-02-06T19:39:35.102Z,23.53
2023-02-06T19:42:02.212Z,27.90
2023-02-06T19:44:28.914Z,22.73
2023-02-06T19:46:57.570Z,24.63
2023-02-06T19:49:25.057Z,24.67
2023-02-06T19:51:51.978Z,25.67
2023-02-06T19:54:19.053Z,27.55
2023-02-06T19:56:47.294Z,24.63
2023-02-06T19:59:15.999Z,25.73
2023-02-06T20:01:42.645Z,29.17
2023-02-06T20:04:21.563Z,24.08
2023-02-06T20:06:48.602Z,27.55
2023-02-06T20:09:16.058Z,24.88
2023-02-06T20:11:43.004Z,23.05
2023-02-06T20:14:09.723Z,22.33
2023-02-06T20:16:39.909Z,25.95
2023-02-06T20:19:07.460Z,27.33
2023-02-06T20:21:46.602Z,24.98
2023-02-06T20:24:15.225Z,24.73
2023-02-06T20:26:43.070Z,24.92
2023-02-06T20:29:16.376Z,20.83
2023-02-06T20:31:43.235Z,24.45
2023-02-06T20:34:09.980Z,22.13
2023-02-06T20:36:38.514Z,23.90
2023-02-06T20:39:05.136Z,27.27
2023-02-06T20:41:32.681Z,25.58
2023-02-06T20:44:00.735Z,20.45
2023-02-06T20:46:28.721Z,20.30
2023-02-06T20:48:57.496Z,20.08
2023-02-06T20:51:24.951Z,17.83
2023-02-06T20:53:53.172Z,18.60
2023-02-06T20:56:21.344Z,15.77
2023-02-06T20:58:48.753Z,15.57
2023-02-06T21:01:17.699Z,20.85
2023-02-06T21:03:45.563Z,16.77
2023-02-06T21:06:13.014Z,17.02
2023-02-06T21:08:40.042Z,17.77
2023-02-06T21:11:08.671Z,19.33
2023-02-06T21:13:35.309Z,16.63
2023-02-06T21:16:02.472Z,21.73
2023-02-06T21:18:31.158Z,16.00
2023-02-06T21:21:05.033Z,19.10
2023-02-06T21:23:31.646Z,19.20
2023-02-06T21:25:58.338Z,18.25
2023-02-06T21:28:26.471Z,18.08
2023-02-06T21:30:59.795Z,19.25
2023-02-06T21:33:26.706Z,19.38
2023-02-06T21:35:53.823Z,16.70
2023-02-06T21:38:20.984Z,18.15
2023-02-06T21:40:47.777Z,17.92
2023-02-06T21:43:14.479Z,18.83
2023-02-06T21:45:44.204Z,19.42
2023-02-06T21:48:10.945Z,17.10
2023-02-06T21:50:38.609Z,17.45
2023-02-06T21:53:05.425Z,16.27
2023-02-06T21:55:32.453Z,17.13
2023-02-06T21:58:06.909Z,19.55
2023-02-06T22:00:33.772Z,16.17
2023-02-06T22:03:02.042Z,17.25
2023-02-06T22:05:28.892Z,18.65
2023-02-06T22:07:55.911Z,22.05
2023-02-06T22:10:23.035Z,19.40
2023-02-06T22:13:17.848Z,19.67
2023-02-06T22:19:39.430Z,20.75
2023-02-06T22:29:34.484Z,21.95
2023-02-06T22:35:35.426Z,25.80
2023-02-06T22:39:03.934Z,30.58
2023-02-06T22:52:37.617Z,36.28
2023-02-06T22:58:32.505Z,33.15
2023-02-06T23:01:02.191Z,33.70
2023-02-06T23:05:55.815Z,32.80
2023-02-06T23:08:24.266Z,36.85
2023-02-06T23:10:50.909Z,32.38
2023-02-06T23:13:17.522Z,38.45
2023-02-06T23:15:44.139Z,38.20
2023-02-06T23:18:10.864Z,37.47
2023-02-06T23:20:37.968Z,36.92
2023-02-06T23:23:05.092Z,41.90
2023-02-06T23:25:33.112Z,37.97
2023-02-06T23:28:00.165Z,42.80
2023-02-06T23:30:26.884Z,44.97
2023-02-06T23:32:53.572Z,45.38
2023-02-06T23:35:20.187Z,37.13
2023-02-06T23:37:46.830Z,40.58
2023-02-06T23:40:13.462Z,42.10
2023-02-06T23:42:41.410Z,41.05
2023-02-06T23:45:08.413Z,40.65
2023-02-06T23:47:35.154Z,41.75
2023-02-06T23:50:05.575Z,39.55
2023-02-06T23:52:32.197Z,37.75
2023-02-06T23:54:58.841Z,40.13
2023-02-06T23:57:25.560Z,43.20
2023-02-06T23:59:53.827Z,40.85
